Home   Weather   Germany   Oberwesel   Past weeks
Flag for Germany

Past Weather in Oberwesel, Rhineland-Palatinate, Germany — Yesterday and Last 2 Weeks

Currently: 55 °F. Clear. (Weather station: Hahn, Germany). See more current weather

Past Weather in Oberwesel — Graph

°F

Oberwesel Temperature Yesterday

Maximum temperature yesterday: 66 °F (at 4:20 pm)
Minimum temperature yesterday: 54 °F (at 5:50 am)
Average temperature yesterday: 60 °F

High & Low Weather Summary for the Past Weeks

 TemperatureHumidityPressure
High75 °F (Jul 18, 4:20 pm)100% (Jul 18, 4:50 am)30.24 "Hg (Jul 18, 4:50 am)
Low52 °F (Jul 20, 5:20 am)47% (Jul 21, 5:50 pm)29.80 "Hg (Jul 30, 4:20 pm)
Average63 °F77%30.01 "Hg
* Reported Jul 17 8:20 pm — Aug 1 8:50 pm, Oberwesel. Weather by CustomWeather, © 2021

Note: Actual official high and low records may vary slightly from our data, if they occured in-between our weather recording intervals... More about our weather records

Oberwesel Weather History for the Previous 24 Hours

Scroll right to see more
 ConditionsComfort  
Time TempWeatherWind HumidityBarometerVisibility
8:50 pm
Sun, Aug 1
57 °FSunny.8 mph88%29.92 "Hg10 mi
8:20 pm57 °FSunny.8 mph88%29.92 "Hg10 mi
7:50 pm57 °FSunny.8 mph88%29.89 "Hg10 mi
7:20 pm57 °FScattered showers. Passing clouds.8 mph88%29.89 "HgN/A
6:50 pm55 °FSprinkles. Passing clouds.7 mph94%29.89 "HgN/A
6:20 pm61 °FSprinkles. Scattered clouds.18 mph68%29.89 "Hg6 mi
5:50 pm64 °FScattered showers. Scattered clouds.10 mph64%29.86 "HgN/A
5:20 pm63 °FScattered showers. Scattered clouds.13 mph68%29.86 "HgN/A
4:50 pm64 °FScattered showers. Scattered clouds.9 mph60%29.86 "HgN/A
4:20 pm64 °FScattered clouds.15 mph64%29.86 "HgN/A
3:50 pm64 °FScattered clouds.10 mph60%29.86 "HgN/A
3:20 pm64 °FScattered clouds.12 mph60%29.86 "HgN/A
2:50 pm64 °FScattered clouds.12 mph60%29.86 "HgN/A
2:20 pm63 °FScattered clouds.14 mph68%29.86 "HgN/A
1:50 pm63 °FScattered clouds.14 mph68%29.86 "HgN/A
1:20 pm63 °FScattered clouds.13 mph64%29.86 "HgN/A
12:50 pm63 °FScattered clouds.14 mph68%29.86 "HgN/A
12:20 pm61 °FScattered clouds.14 mph72%29.86 "HgN/A
11:50 am63 °FScattered clouds.14 mph64%29.86 "HgN/A
11:20 am61 °FScattered clouds.13 mph72%29.86 "HgN/A
10:50 am59 °FScattered clouds.12 mph77%29.86 "HgN/A
10:20 am59 °FScattered clouds.8 mph72%29.86 "HgN/A
9:50 am57 °FPassing clouds.6 mph88%29.86 "HgN/A
8:50 am55 °FScattered clouds.6 mph94%29.86 "HgN/A
7:50 am54 °FPassing clouds.3 mph100%29.86 "HgN/A
7:20 am54 °FPassing clouds.5 mph100%29.86 "HgN/A
6:50 am54 °FPassing clouds.6 mph94%29.83 "HgN/A
6:20 am54 °FPassing clouds.7 mph94%29.83 "HgN/A
5:50 am54 °FClear.5 mph94%29.83 "Hg10 mi
5:20 am54 °FClear.5 mph94%29.83 "Hg10 mi
4:50 am54 °FClear.5 mph94%29.83 "Hg10 mi
4:20 am54 °FClear.5 mph94%29.86 "Hg10 mi
3:50 am54 °FClear.5 mph94%29.86 "Hg10 mi
3:20 am55 °FClear.3 mph88%29.86 "Hg10 mi
2:50 am55 °FClear.2 mph88%29.86 "Hg10 mi
1:20 am57 °FClear.2 mph82%29.86 "Hg10 mi
12:50 am57 °FClear.5 mph82%29.86 "Hg10 mi
12:20 am57 °FPassing clouds.3 mph82%29.86 "HgN/A
11:50 pm
Sat, Jul 31
57 °FClear.3 mph82%29.86 "Hg10 mi
11:20 pm57 °FClear.6 mph82%29.89 "Hg10 mi
10:50 pm57 °FClear.3 mph88%29.86 "Hg10 mi
10:20 pm59 °FPassing clouds.3 mph82%29.89 "HgN/A
Weather by CustomWeather, © 2021

See weather overview